createdAt,value
2023-02-28T00:01:07.780Z,4.93
2023-02-28T00:03:36.216Z,5.28
2023-02-28T00:06:04.893Z,5.35
2023-02-28T00:08:31.988Z,5.15
2023-02-28T00:11:02.652Z,5.40
2023-02-28T00:13:29.862Z,5.32
2023-02-28T00:16:01.289Z,5.10
2023-02-28T00:18:30.490Z,5.10
2023-02-28T00:20:59.098Z,5.28
2023-02-28T00:23:26.440Z,5.35
2023-02-28T00:25:53.537Z,5.90
2023-02-28T00:28:20.641Z,5.15
2023-02-28T00:30:47.750Z,5.75
2023-02-28T00:33:14.807Z,5.47
2023-02-28T00:35:41.894Z,5.53
2023-02-28T00:38:09.365Z,5.47
2023-02-28T00:40:36.397Z,5.80
2023-02-28T00:43:04.936Z,5.55
2023-02-28T00:45:32.035Z,5.65
2023-02-28T00:47:59.104Z,5.78
2023-02-28T00:50:26.455Z,5.63
2023-02-28T00:52:53.498Z,5.57
2023-02-28T00:55:20.747Z,5.68
2023-02-28T00:57:47.754Z,5.45
2023-02-28T01:00:14.980Z,5.70
2023-02-28T01:02:42.013Z,5.75
2023-02-28T01:05:09.294Z,5.68
2023-02-28T01:07:36.309Z,5.95
2023-02-28T01:10:03.396Z,5.97
2023-02-28T01:12:31.137Z,5.55
2023-02-28T01:14:58.753Z,6.38
2023-02-28T01:17:27.216Z,5.65
2023-02-28T01:19:55.612Z,5.28
2023-02-28T01:22:22.645Z,5.70
2023-02-28T01:24:49.702Z,6.13
2023-02-28T01:27:16.719Z,6.15
2023-02-28T01:29:43.771Z,6.50
2023-02-28T01:32:10.888Z,6.30
2023-02-28T01:34:38.195Z,6.22
2023-02-28T01:37:05.531Z,5.82
2023-02-28T01:39:32.563Z,6.00
2023-02-28T01:41:59.582Z,6.35
2023-02-28T01:44:45.203Z,5.90
2023-02-28T01:47:12.520Z,6.07
2023-02-28T01:49:39.635Z,6.03
2023-02-28T01:52:06.806Z,6.55
2023-02-28T01:54:35.584Z,6.25
2023-02-28T01:57:06.469Z,5.97
2023-02-28T01:59:36.509Z,6.75
2023-02-28T02:02:04.307Z,6.82
2023-02-28T02:04:37.023Z,6.65
2023-02-28T02:07:05.038Z,6.80
2023-02-28T02:09:32.092Z,6.10
2023-02-28T02:11:59.753Z,6.40
2023-02-28T02:14:42.396Z,6.95
2023-02-28T02:17:13.232Z,6.25
2023-02-28T02:19:52.199Z,6.60
2023-02-28T02:22:22.050Z,6.68
2023-02-28T02:24:58.005Z,6.22
2023-02-28T02:27:25.059Z,6.10
2023-02-28T02:30:10.985Z,6.55
2023-02-28T02:32:47.937Z,6.75
2023-02-28T02:35:18.639Z,6.45
2023-02-28T02:38:15.016Z,6.28
2023-02-28T02:40:48.899Z,7.43
2023-02-28T02:43:22.092Z,6.18
2023-02-28T02:45:51.432Z,6.90
2023-02-28T02:48:20.335Z,6.93
2023-02-28T02:50:50.239Z,7.00
2023-02-28T02:53:18.910Z,7.43
2023-02-28T02:55:48.724Z,7.43
2023-02-28T02:58:18.392Z,6.55
2023-02-28T03:00:49.095Z,7.22
2023-02-28T03:03:18.501Z,7.05
2023-02-28T03:05:52.243Z,7.30
2023-02-28T03:08:19.431Z,7.28
2023-02-28T03:10:47.712Z,7.05
2023-02-28T03:13:14.784Z,7.40
2023-02-28T03:15:47.749Z,7.18
2023-02-28T03:18:33.511Z,7.47
2023-02-28T03:21:06.267Z,8.45
2023-02-28T03:23:53.555Z,7.85
2023-02-28T03:26:25.181Z,8.00
2023-02-28T03:29:06.846Z,7.63
2023-02-28T03:31:33.846Z,8.02
2023-02-28T03:34:15.879Z,8.38
2023-02-28T03:36:45.841Z,8.00
2023-02-28T03:39:18.205Z,8.90
2023-02-28T03:41:54.705Z,8.50
2023-02-28T03:44:25.156Z,8.32
2023-02-28T03:46:59.241Z,9.18
2023-02-28T03:49:32.304Z,8.70
2023-02-28T03:52:02.249Z,8.77
2023-02-28T03:54:34.211Z,9.27
2023-02-28T03:57:04.665Z,9.43
2023-02-28T03:59:36.644Z,8.77
2023-02-28T04:02:03.998Z,9.93
2023-02-28T04:04:31.340Z,9.55
2023-02-28T04:07:10.438Z,9.48
2023-02-28T04:09:37.554Z,10.05
2023-02-28T04:12:04.731Z,8.40
2023-02-28T04:14:31.755Z,9.52
2023-02-28T04:16:58.791Z,9.20
2023-02-28T04:19:25.848Z,9.77
2023-02-28T04:21:53.927Z,10.10
2023-02-28T04:24:22.272Z,10.13
2023-02-28T04:26:51.014Z,10.10
2023-02-28T04:29:22.224Z,9.65
2023-02-28T04:31:49.385Z,9.90
2023-02-28T04:34:16.906Z,9.98
2023-02-28T04:36:43.961Z,10.00
2023-02-28T04:39:11.079Z,10.15
2023-02-28T04:41:38.155Z,10.05
2023-02-28T04:44:05.265Z,11.15
2023-02-28T04:46:32.255Z,11.30
2023-02-28T04:48:59.975Z,10.68
2023-02-28T04:51:27.374Z,12.20
2023-02-28T04:53:54.920Z,10.10
2023-02-28T04:56:22.425Z,10.32
2023-02-28T04:58:49.829Z,10.45
2023-02-28T05:01:27.227Z,11.25
2023-02-28T05:03:56.174Z,11.77
2023-02-28T05:06:24.708Z,11.27
2023-02-28T05:08:51.893Z,11.77
2023-02-28T05:11:23.392Z,12.10
2023-02-28T05:13:50.937Z,12.85
2023-02-28T05:16:18.392Z,13.05
2023-02-28T05:18:45.518Z,13.18
2023-02-28T05:21:32.609Z,13.30
2023-02-28T05:24:02.384Z,12.43
2023-02-28T05:26:29.877Z,13.98
2023-02-28T05:28:57.128Z,12.57
2023-02-28T05:31:24.308Z,12.70
2023-02-28T05:33:51.650Z,14.43
2023-02-28T05:36:18.754Z,14.65
2023-02-28T05:38:47.513Z,12.90
2023-02-28T05:41:14.539Z,13.27
2023-02-28T05:43:41.583Z,13.95
2023-02-28T05:46:09.618Z,14.23
2023-02-28T05:48:37.556Z,14.63
2023-02-28T05:51:05.361Z,15.60
2023-02-28T05:53:33.014Z,15.65
2023-02-28T05:56:00.269Z,15.80
2023-02-28T05:58:31.425Z,15.10
2023-02-28T06:00:59.247Z,13.52
2023-02-28T06:03:26.357Z,15.88
2023-02-28T06:05:53.584Z,15.93
2023-02-28T06:08:20.730Z,16.20
2023-02-28T06:10:47.912Z,17.45
2023-02-28T06:13:15.227Z,16.73
2023-02-28T06:15:42.469Z,15.68
2023-02-28T06:18:09.546Z,16.10
2023-02-28T06:20:37.160Z,16.42
2023-02-28T06:23:04.215Z,15.15
2023-02-28T06:25:31.252Z,16.63
2023-02-28T06:27:58.418Z,19.23
2023-02-28T06:30:27.758Z,17.23
2023-02-28T06:32:55.367Z,16.95
2023-02-28T06:35:22.617Z,18.15
2023-02-28T06:37:49.697Z,19.00
2023-02-28T06:40:16.811Z,18.70
2023-02-28T06:42:44.296Z,17.63
2023-02-28T06:45:12.130Z,17.80
2023-02-28T06:47:40.036Z,17.42
2023-02-28T06:50:07.524Z,17.20
2023-02-28T06:52:37.097Z,16.60
2023-02-28T06:55:04.828Z,18.45
2023-02-28T06:57:32.195Z,18.08
2023-02-28T07:00:04.015Z,18.90
2023-02-28T07:02:32.542Z,18.85
2023-02-28T07:04:59.671Z,17.70
2023-02-28T07:07:26.724Z,18.92
2023-02-28T07:09:53.829Z,18.77
2023-02-28T07:12:20.848Z,18.73
2023-02-28T07:14:47.889Z,19.23
2023-02-28T07:17:15.038Z,19.05
2023-02-28T07:19:42.074Z,19.20
2023-02-28T07:22:09.423Z,19.90
2023-02-28T07:24:36.554Z,19.48
2023-02-28T07:27:03.864Z,19.10
2023-02-28T07:29:30.992Z,19.02
2023-02-28T07:31:58.421Z,20.30
2023-02-28T07:34:26.780Z,19.77
2023-02-28T07:36:57.111Z,21.38
2023-02-28T07:39:24.145Z,18.55
2023-02-28T07:41:51.230Z,19.73
2023-02-28T07:44:18.300Z,17.83
2023-02-28T07:46:45.492Z,18.98
2023-02-28T07:49:12.527Z,20.63
2023-02-28T07:51:39.566Z,19.15
2023-02-28T07:54:06.633Z,19.58
2023-02-28T07:56:33.653Z,21.80
2023-02-28T07:59:00.685Z,19.60
2023-02-28T08:01:27.908Z,20.20
2023-02-28T08:03:55.916Z,20.20
2023-02-28T08:06:23.867Z,19.73
2023-02-28T08:08:51.209Z,17.95
2023-02-28T08:11:18.944Z,20.48
2023-02-28T08:13:46.710Z,19.20
2023-02-28T08:16:18.326Z,21.33
2023-02-28T08:18:45.621Z,19.88
2023-02-28T08:21:13.109Z,20.10
2023-02-28T08:23:40.340Z,18.63
2023-02-28T08:26:07.803Z,19.67
2023-02-28T08:28:35.029Z,20.00
2023-02-28T08:31:02.160Z,20.20
2023-02-28T08:33:29.330Z,20.13
2023-02-28T08:35:57.600Z,20.17
2023-02-28T08:38:25.090Z,19.20
2023-02-28T08:40:52.192Z,21.13
2023-02-28T08:43:19.290Z,21.00
2023-02-28T08:45:46.425Z,20.77
2023-02-28T08:48:14.518Z,19.92
2023-02-28T08:50:41.541Z,20.48
2023-02-28T08:53:08.558Z,19.45
2023-02-28T08:55:35.690Z,19.00
2023-02-28T08:58:02.731Z,19.92
2023-02-28T09:00:29.752Z,20.58
2023-02-28T09:02:56.793Z,20.17
2023-02-28T09:05:23.957Z,20.13
2023-02-28T09:07:51.140Z,21.10
2023-02-28T09:10:18.250Z,19.40
2023-02-28T09:12:47.602Z,18.90
2023-02-28T09:15:14.651Z,18.40
2023-02-28T09:17:42.166Z,17.60
2023-02-28T09:20:09.882Z,17.92
2023-02-28T09:22:36.986Z,18.50
2023-02-28T09:25:04.205Z,19.20
2023-02-28T09:27:31.243Z,18.77
2023-02-28T09:29:58.285Z,19.25
2023-02-28T09:32:25.378Z,17.15
2023-02-28T09:34:52.728Z,19.92
2023-02-28T09:37:19.820Z,17.95
2023-02-28T09:39:46.891Z,17.83
2023-02-28T09:42:20.028Z,17.23
2023-02-28T09:44:49.124Z,14.52
2023-02-28T09:47:23.096Z,17.92
2023-02-28T09:49:50.401Z,18.13
2023-02-28T09:52:20.405Z,18.38
2023-02-28T09:54:48.275Z,17.10
2023-02-28T09:57:30.482Z,18.05
2023-02-28T10:00:19.886Z,17.40
2023-02-28T10:03:02.373Z,18.08
2023-02-28T10:05:35.654Z,19.27
2023-02-28T10:08:26.298Z,19.52
2023-02-28T10:10:56.352Z,18.65
2023-02-28T10:13:47.827Z,19.65
2023-02-28T10:16:17.363Z,18.60
2023-02-28T10:18:55.557Z,17.15
2023-02-28T10:21:31.059Z,18.67
2023-02-28T10:24:03.658Z,17.23
2023-02-28T10:26:32.071Z,18.02
2023-02-28T10:28:59.288Z,17.30
2023-02-28T10:31:26.652Z,17.65
2023-02-28T10:33:53.874Z,17.85
2023-02-28T10:36:22.220Z,18.10
2023-02-28T10:38:50.020Z,17.38
2023-02-28T10:41:19.245Z,16.80
2023-02-28T10:43:46.371Z,17.20
2023-02-28T10:46:27.212Z,17.58
2023-02-28T10:49:05.360Z,17.02
2023-02-28T10:51:36.729Z,17.50
2023-02-28T10:54:04.413Z,15.80
2023-02-28T10:56:32.463Z,16.35
2023-02-28T10:58:59.696Z,16.50
2023-02-28T11:01:39.608Z,15.85
2023-02-28T11:04:25.619Z,15.82
2023-02-28T11:06:59.858Z,17.08
2023-02-28T11:09:30.513Z,17.58
2023-02-28T11:11:57.886Z,15.20
2023-02-28T11:14:29.873Z,17.05
2023-02-28T11:16:58.497Z,18.35
2023-02-28T11:19:26.881Z,16.73
2023-02-28T11:21:58.780Z,16.30
2023-02-28T11:24:30.178Z,15.52
2023-02-28T11:26:57.785Z,16.08
2023-02-28T11:29:31.933Z,17.05
2023-02-28T11:32:18.199Z,16.80
2023-02-28T11:34:46.049Z,16.02
2023-02-28T11:37:14.996Z,17.83
2023-02-28T11:39:42.393Z,17.13
2023-02-28T11:42:26.607Z,15.80
2023-02-28T11:44:55.869Z,17.40
2023-02-28T11:47:34.998Z,15.80
2023-02-28T11:50:18.780Z,17.63
2023-02-28T11:53:18.372Z,16.88
2023-02-28T11:56:01.209Z,16.20
2023-02-28T11:58:32.304Z,16.58
2023-02-28T12:01:08.958Z,16.05
2023-02-28T12:03:42.589Z,15.85
2023-02-28T12:06:15.734Z,16.25
2023-02-28T12:08:42.806Z,16.75
2023-02-28T12:11:20.103Z,17.00
2023-02-28T12:13:55.992Z,15.63
2023-02-28T12:16:31.907Z,15.38
2023-02-28T12:19:01.856Z,15.57
2023-02-28T12:21:31.775Z,15.20
2023-02-28T12:24:17.676Z,15.55
2023-02-28T12:26:46.281Z,14.52
2023-02-28T12:29:29.677Z,15.38
2023-02-28T12:32:09.012Z,10.63
2023-02-28T12:34:39.613Z,14.02
2023-02-28T12:37:09.194Z,13.82
2023-02-28T12:39:50.258Z,15.43
2023-02-28T12:42:29.337Z,14.80
2023-02-28T12:45:05.652Z,14.50
2023-02-28T12:47:32.654Z,14.65
2023-02-28T12:50:12.166Z,14.57
2023-02-28T12:52:43.239Z,14.65
2023-02-28T12:55:30.636Z,14.95
2023-02-28T12:58:00.722Z,13.85
2023-02-28T13:00:31.545Z,13.88
2023-02-28T13:03:02.023Z,14.35
2023-02-28T13:05:34.301Z,12.50
2023-02-28T13:08:08.113Z,13.63
2023-02-28T13:13:04.906Z,12.45
2023-02-28T13:15:35.988Z,12.00
2023-02-28T13:18:03.282Z,12.70
2023-02-28T13:20:37.737Z,14.00
2023-02-28T13:23:06.527Z,13.88
2023-02-28T13:25:36.329Z,12.23
2023-02-28T13:28:05.210Z,13.88
2023-02-28T13:30:51.262Z,13.18
2023-02-28T13:33:21.309Z,13.18
2023-02-28T13:35:48.391Z,13.45
2023-02-28T13:38:26.218Z,13.57
2023-02-28T13:40:53.350Z,13.57
2023-02-28T13:43:34.526Z,14.00
2023-02-28T13:46:07.345Z,13.80
2023-02-28T13:48:34.449Z,13.68
2023-02-28T13:51:01.582Z,13.50
2023-02-28T13:53:51.359Z,14.27
2023-02-28T13:56:25.707Z,13.85
2023-02-28T13:58:59.531Z,14.43
2023-02-28T14:01:45.965Z,13.70
2023-02-28T14:04:33.502Z,13.60
2023-02-28T14:07:01.085Z,12.95
2023-02-28T14:09:39.777Z,12.95
2023-02-28T14:12:26.861Z,13.13
2023-02-28T14:14:53.929Z,13.27
2023-02-28T14:17:21.019Z,15.80
2023-02-28T14:19:50.999Z,14.52
2023-02-28T14:22:26.997Z,13.23
2023-02-28T14:24:59.993Z,16.65
2023-02-28T14:27:39.361Z,11.43
2023-02-28T14:30:22.396Z,18.30
2023-02-28T14:32:52.866Z,14.70
2023-02-28T14:35:26.116Z,12.75
2023-02-28T14:37:54.390Z,10.80
2023-02-28T14:40:31.353Z,13.65
2023-02-28T14:43:02.312Z,14.18
2023-02-28T14:45:33.435Z,13.27
2023-02-28T14:48:02.011Z,13.15
2023-02-28T14:50:31.745Z,13.98
2023-02-28T14:52:59.697Z,13.93
2023-02-28T14:55:29.848Z,13.98
2023-02-28T14:57:58.386Z,13.80
2023-02-28T15:00:29.877Z,13.85
2023-02-28T15:03:00.972Z,13.40
2023-02-28T15:05:30.636Z,13.45
2023-02-28T15:08:08.940Z,12.27
2023-02-28T15:10:36.155Z,12.70
2023-02-28T15:13:07.141Z,13.13
2023-02-28T15:16:08.246Z,13.13
2023-02-28T15:18:35.437Z,11.77
2023-02-28T15:21:04.654Z,10.63
2023-02-28T15:23:32.012Z,11.95
2023-02-28T15:25:59.389Z,12.75
2023-02-28T15:28:26.552Z,12.25
2023-02-28T15:31:03.830Z,12.75
2023-02-28T15:33:32.084Z,12.98
2023-02-28T15:36:15.182Z,10.75
2023-02-28T15:38:44.659Z,13.90
2023-02-28T15:41:22.779Z,11.55
2023-02-28T15:43:49.812Z,12.77
2023-02-28T15:46:17.956Z,12.05
2023-02-28T15:48:51.117Z,13.07
2023-02-28T15:51:33.332Z,12.30
2023-02-28T15:54:01.798Z,12.55
2023-02-28T15:56:30.982Z,12.18
2023-02-28T15:59:08.594Z,12.63
2023-02-28T16:01:36.723Z,12.73
2023-02-28T16:04:05.425Z,13.88
2023-02-28T16:06:34.107Z,13.75
2023-02-28T16:09:01.413Z,12.60
2023-02-28T16:11:28.991Z,13.30
2023-02-28T16:13:56.230Z,13.25
2023-02-28T16:16:25.391Z,15.40
2023-02-28T16:18:52.577Z,14.98
2023-02-28T16:21:19.833Z,14.93
2023-02-28T16:23:46.879Z,14.57
2023-02-28T16:26:19.644Z,13.70
2023-02-28T16:28:46.667Z,13.52
2023-02-28T16:31:17.570Z,15.32
2023-02-28T16:33:45.778Z,16.23
2023-02-28T16:36:19.922Z,14.93
2023-02-28T16:38:47.016Z,13.90
2023-02-28T16:41:18.137Z,13.88
2023-02-28T16:43:45.862Z,15.27
2023-02-28T16:46:13.763Z,17.15
2023-02-28T16:48:42.302Z,16.25
2023-02-28T16:51:16.059Z,14.48
2023-02-28T16:53:43.602Z,18.02
2023-02-28T16:56:21.035Z,15.05
2023-02-28T16:58:48.395Z,15.48
2023-02-28T17:01:16.023Z,15.18
2023-02-28T17:03:44.328Z,15.32
2023-02-28T17:06:18.277Z,15.82
2023-02-28T17:08:45.309Z,14.63
2023-02-28T17:11:12.342Z,15.43
2023-02-28T17:13:39.389Z,15.23
2023-02-28T17:16:06.827Z,14.60
2023-02-28T17:18:35.556Z,15.80
2023-02-28T17:21:02.713Z,15.70
2023-02-28T17:23:30.212Z,16.52
2023-02-28T17:25:58.194Z,15.57
2023-02-28T17:28:25.588Z,16.05
2023-02-28T17:30:52.731Z,15.30
2023-02-28T17:33:19.932Z,15.95
2023-02-28T17:35:47.085Z,15.10
2023-02-28T17:38:18.554Z,16.35
2023-02-28T17:40:45.669Z,16.02
2023-02-28T17:43:13.031Z,16.40
2023-02-28T17:45:40.259Z,17.00
2023-02-28T17:48:07.351Z,15.90
2023-02-28T17:50:34.433Z,15.88
2023-02-28T17:53:01.539Z,18.27
2023-02-28T17:55:28.658Z,17.48
2023-02-28T17:57:55.703Z,16.88
2023-02-28T18:00:24.828Z,16.73
2023-02-28T18:02:52.208Z,16.55
2023-02-28T18:05:19.437Z,16.25
2023-02-28T18:07:46.658Z,17.05
2023-02-28T18:10:20.324Z,16.30
2023-02-28T18:15:14.580Z,15.48
2023-02-28T18:17:41.664Z,16.67
2023-02-28T18:20:10.289Z,16.38
2023-02-28T18:22:38.109Z,16.25
2023-02-28T18:25:06.257Z,16.52
2023-02-28T18:27:33.686Z,16.70
2023-02-28T18:30:00.768Z,18.25
2023-02-28T18:32:27.894Z,17.10
2023-02-28T18:34:55.503Z,17.67
2023-02-28T18:37:22.858Z,17.50
2023-02-28T18:39:50.112Z,18.33
2023-02-28T18:42:17.171Z,16.98
2023-02-28T18:44:44.262Z,17.63
2023-02-28T18:47:11.405Z,17.10
2023-02-28T18:49:38.494Z,15.95
2023-02-28T18:52:05.585Z,18.00
2023-02-28T18:54:32.611Z,17.33
2023-02-28T18:56:59.673Z,17.77
2023-02-28T18:59:26.988Z,18.52
2023-02-28T19:01:54.335Z,17.85
2023-02-28T19:04:21.496Z,17.90
2023-02-28T19:06:49.435Z,17.92
2023-02-28T19:09:16.467Z,17.77
2023-02-28T19:11:43.491Z,17.83
2023-02-28T19:14:10.520Z,17.65
2023-02-28T19:16:37.657Z,18.40
2023-02-28T19:19:04.771Z,18.67
2023-02-28T19:21:31.921Z,19.35
2023-02-28T19:23:58.961Z,18.85
2023-02-28T19:26:26.925Z,19.65
2023-02-28T19:28:54.069Z,18.88
2023-02-28T19:31:25.767Z,18.67
2023-02-28T19:33:53.230Z,19.17
2023-02-28T19:36:20.849Z,19.92
2023-02-28T19:38:48.119Z,20.00
2023-02-28T19:41:15.920Z,19.05
2023-02-28T19:43:43.421Z,20.80
2023-02-28T19:46:11.779Z,20.15
2023-02-28T19:48:38.884Z,20.80
2023-02-28T19:51:07.541Z,21.23
2023-02-28T19:53:35.366Z,20.55
2023-02-28T19:56:04.171Z,19.45
2023-02-28T19:58:32.043Z,20.10
2023-02-28T20:01:01.245Z,20.40
2023-02-28T20:03:28.351Z,19.70
2023-02-28T20:06:02.304Z,21.50
2023-02-28T20:08:29.597Z,21.85
2023-02-28T20:10:56.739Z,22.15
2023-02-28T20:13:27.983Z,20.40
2023-02-28T20:15:55.422Z,21.17
2023-02-28T20:18:22.496Z,21.65
2023-02-28T20:20:49.512Z,20.65
2023-02-28T20:23:16.572Z,20.48
2023-02-28T20:25:43.575Z,20.27
2023-02-28T20:28:10.674Z,22.33
2023-02-28T20:30:39.284Z,21.15
2023-02-28T20:33:06.440Z,20.95
2023-02-28T20:35:33.674Z,22.40
2023-02-28T20:38:00.777Z,20.58
2023-02-28T20:40:27.790Z,21.98
2023-02-28T20:42:55.314Z,20.38
2023-02-28T20:45:22.450Z,20.42
2023-02-28T20:47:49.477Z,21.23
2023-02-28T20:50:17.182Z,20.35
2023-02-28T20:52:44.522Z,21.95
2023-02-28T20:55:15.503Z,20.58
2023-02-28T20:57:42.503Z,21.35
2023-02-28T21:00:09.822Z,20.00
2023-02-28T21:02:37.423Z,21.33
2023-02-28T21:05:04.622Z,21.55
2023-02-28T21:07:31.774Z,20.73
2023-02-28T21:09:58.765Z,21.60
2023-02-28T21:12:25.823Z,21.52
2023-02-28T21:14:52.839Z,21.02
2023-02-28T21:17:19.931Z,20.95
2023-02-28T21:19:46.969Z,22.10
2023-02-28T21:22:14.120Z,20.20
2023-02-28T21:24:41.222Z,20.98
2023-02-28T21:27:08.299Z,20.63
2023-02-28T21:29:35.294Z,20.92
2023-02-28T21:32:02.456Z,22.35
2023-02-28T21:34:29.624Z,21.00
2023-02-28T21:36:56.794Z,21.45
2023-02-28T21:39:26.110Z,20.70
2023-02-28T21:41:53.946Z,21.85
2023-02-28T21:44:22.563Z,20.38
2023-02-28T21:46:52.100Z,20.35
2023-02-28T21:49:19.307Z,21.75
2023-02-28T21:51:46.350Z,21.40
2023-02-28T21:54:13.841Z,20.20
2023-02-28T21:56:41.153Z,20.48
2023-02-28T21:59:09.592Z,21.88
2023-02-28T22:01:40.863Z,20.42
2023-02-28T22:04:09.110Z,21.38
2023-02-28T22:06:37.504Z,20.65
2023-02-28T22:09:08.589Z,21.00
2023-02-28T22:11:36.372Z,21.85
2023-02-28T22:14:03.394Z,21.75
2023-02-28T22:16:44.118Z,21.77
2023-02-28T22:19:17.565Z,20.88
2023-02-28T22:21:45.641Z,21.33
2023-02-28T22:24:12.890Z,22.65
2023-02-28T22:26:39.924Z,20.33
2023-02-28T22:29:07.038Z,22.27
2023-02-28T22:31:35.366Z,21.05
2023-02-28T22:34:05.902Z,22.05
2023-02-28T22:36:33.344Z,21.92
2023-02-28T22:39:01.058Z,21.08
2023-02-28T22:41:28.546Z,21.42
2023-02-28T22:43:56.983Z,21.52
2023-02-28T22:46:24.822Z,21.52
2023-02-28T22:48:51.967Z,22.42
2023-02-28T22:51:21.070Z,21.60
2023-02-28T22:53:49.560Z,23.20
2023-02-28T22:56:17.323Z,20.52
2023-02-28T22:58:45.718Z,21.40
2023-02-28T23:01:15.015Z,20.83
2023-02-28T23:03:42.608Z,21.55
2023-02-28T23:06:23.394Z,21.27
2023-02-28T23:08:51.284Z,21.73
2023-02-28T23:11:20.217Z,22.30
2023-02-28T23:13:58.167Z,23.35
2023-02-28T23:16:35.392Z,21.48
2023-02-28T23:19:03.723Z,22.13
2023-02-28T23:21:31.111Z,21.23
2023-02-28T23:23:58.140Z,20.83
2023-02-28T23:26:25.352Z,22.23
2023-02-28T23:28:52.400Z,23.20
2023-02-28T23:31:19.488Z,20.48
2023-02-28T23:33:46.919Z,21.88
2023-02-28T23:36:15.130Z,21.58
2023-02-28T23:38:43.244Z,22.05
2023-02-28T23:41:11.007Z,22.35
2023-02-28T23:43:38.062Z,22.65
2023-02-28T23:46:05.319Z,22.45
2023-02-28T23:48:32.524Z,23.85
2023-02-28T23:51:10.503Z,21.35
2023-02-28T23:53:38.620Z,21.88
2023-02-28T23:56:06.708Z,22.63
2023-02-28T23:58:34.405Z,21.90
